Time,TemperatureF,DewpointF,PressureIn,WindDirection,WindDirectionDegrees,WindSpeedMPH,WindSpeedGustMPH,Humidity,HourlyPrecipIn,Conditions,Clouds,dailyrainin,SolarRadiationWatts/m^2,SoftwareType,DateUTC
2013-10-12 00:02:00,57.0,22.0,-100.00,WNW,292,8.0,10.0,25,-99.99,,,-99.99,0.000000,,2013-10-12 06:02:00,
2013-10-12 00:42:00,56.0,22.0,-100.00,WNW,291,9.0,11.0,27,-99.99,,,-99.99,0.000000,,2013-10-12 06:42:00,
2013-10-12 00:52:00,55.0,24.0,-100.00,WNW,296,9.0,11.0,29,-99.99,,,-99.99,0.000000,,2013-10-12 06:52:00,
2013-10-12 01:02:00,55.0,24.0,-100.00,WNW,296,9.0,11.0,29,-99.99,,,-99.99,0.000000,,2013-10-12 07:02:00,
2013-10-12 02:22:00,56.0,27.0,-100.00,WNW,291,9.0,10.0,32,-99.99,,,-99.99,0.000000,,2013-10-12 08:22:00,
2013-10-12 02:42:00,55.0,27.0,-100.00,WNW,289,9.0,10.0,33,-99.99,,,-99.99,0.000000,,2013-10-12 08:42:00,
2013-10-12 03:11:00,53.0,25.0,-100.00,NE,34,5.0,10.0,32,-99.99,,,-99.99,0.000000,,2013-10-12 09:11:00,
2013-10-12 05:42:00,53.0,29.0,-100.00,NW,325,7.0,9.0,39,-99.99,,,-99.99,0.000000,,2013-10-12 11:42:00,
2013-10-12 05:52:00,52.0,30.0,-100.00,WNW,301,5.0,9.0,42,-99.99,,,-99.99,0.000000,,2013-10-12 11:52:00,
2013-10-12 06:11:00,53.0,30.0,-100.00,NW,325,6.0,8.0,39,-99.99,,,-99.99,0.000000,,2013-10-12 12:11:00,
2013-10-12 06:42:00,50.0,31.0,-100.00,NNW,329,5.0,8.0,47,-99.99,,,-99.99,0.000000,,2013-10-12 12:42:00,
2013-10-12 10:23:00,61.0,31.0,-100.00,SSE,153,5.0,7.0,32,-99.99,,,-99.99,449.079987,,2013-10-12 16:23:00,
2013-10-12 10:43:00,62.0,31.0,-100.00,SE,143,4.0,6.0,31,-99.99,,,-99.99,534.159973,,2013-10-12 16:43:00,
2013-10-12 11:42:00,66.0,26.0,-100.00,SE,134,5.0,9.0,22,-99.99,,,-99.99,665.260010,,2013-10-12 17:42:00,
2013-10-12 12:42:00,67.0,30.0,-100.00,SE,133,6.0,11.0,25,-99.99,,,-99.99,753.119995,,2013-10-12 18:42:00,
2013-10-12 13:42:00,69.0,32.0,-100.00,South,191,5.0,11.0,24,-99.99,,,-99.99,769.859985,,2013-10-12 19:42:00,
2013-10-12 15:43:00,72.0,33.0,-100.00,SSE,156,9.0,15.0,23,-99.99,,,-99.99,654.099976,,2013-10-12 21:43:00,
2013-10-12 18:22:00,73.0,30.0,-100.00,SSE,163,7.0,11.0,20,-99.99,,,-99.99,184.100006,,2013-10-13 00:22:00,
2013-10-12 18:32:00,73.0,30.0,-100.00,SSE,163,7.0,11.0,20,-99.99,,,-99.99,184.100006,,2013-10-13 00:32:00,
2013-10-12 21:45:00,62.0,32.0,-100.00,NNW,328,3.0,5.0,31,-99.99,,,-99.99,0.000000,,2013-10-13 03:45:00,
2013-10-12 22:02:00,-999.0,-99.9,-100.00,NNW,347,5.0,6.0,-999,-99.99,,,-99.99,,,2013-10-13 04:02:00,
2013-10-12 23:12:00,60.0,35.0,-100.00,NNW,333,5.0,7.0,38,-99.99,,,-99.99,0.000000,,2013-10-13 05:12:00,
2013-10-12 23:43:00,59.0,36.0,-100.00,NW,319,5.0,8.0,41,-99.99,,,-99.99,0.000000,,2013-10-13 05:43:00,